createdAt,value
2018-10-16T00:01:51.923Z,58.10
2018-10-16T00:06:55.655Z,58.00
2018-10-16T00:12:03.061Z,57.90
2018-10-16T00:17:06.804Z,58.30
2018-10-16T00:22:10.547Z,58.00
2018-10-16T00:27:15.061Z,58.20
2018-10-16T00:32:18.791Z,58.20
2018-10-16T00:37:22.496Z,58.20
2018-10-16T00:42:26.216Z,58.40
2018-10-16T00:47:29.927Z,58.80
2018-10-16T00:52:33.629Z,58.60
2018-10-16T00:57:37.775Z,58.60
2018-10-16T01:02:42.524Z,58.70
2018-10-16T01:07:46.266Z,58.20
2018-10-16T01:12:49.975Z,58.70
2018-10-16T01:17:53.696Z,58.70
2018-10-16T01:22:57.416Z,58.60
2018-10-16T01:28:01.159Z,58.70
2018-10-16T01:33:04.880Z,59.00
2018-10-16T01:38:08.618Z,58.90
2018-10-16T01:43:12.331Z,59.00
2018-10-16T01:48:16.058Z,59.20
2018-10-16T01:53:19.808Z,59.20
2018-10-16T01:58:23.532Z,59.20
2018-10-16T02:03:27.315Z,59.20
2018-10-16T02:08:31.068Z,59.30
2018-10-16T02:13:34.810Z,59.30
2018-10-16T02:18:38.521Z,59.40
2018-10-16T02:23:42.248Z,59.50
2018-10-16T02:28:45.967Z,59.60
2018-10-16T02:33:49.689Z,59.50
2018-10-16T02:38:53.407Z,59.40
2018-10-16T02:43:57.124Z,59.70
2018-10-16T02:49:00.865Z,59.70
2018-10-16T02:54:04.597Z,59.70
2018-10-16T02:59:08.329Z,59.50
2018-10-16T03:04:12.047Z,59.70
2018-10-16T03:09:15.772Z,59.80
2018-10-16T03:14:19.676Z,59.60
2018-10-16T03:19:23.429Z,59.60
2018-10-16T03:24:27.209Z,59.60
2018-10-16T03:29:30.940Z,60.60
2018-10-16T03:34:34.695Z,59.90
2018-10-16T03:39:38.422Z,59.70
2018-10-16T03:44:42.147Z,60.00
2018-10-16T03:49:45.879Z,60.10
2018-10-16T03:54:49.600Z,59.90
2018-10-16T03:59:53.336Z,59.90
2018-10-16T04:04:57.091Z,60.00
2018-10-16T04:10:00.826Z,60.00
2018-10-16T04:15:05.880Z,60.20
2018-10-16T04:20:09.596Z,60.90
2018-10-16T04:25:13.344Z,60.10
2018-10-16T04:30:17.068Z,59.90
2018-10-16T04:35:20.790Z,60.00
2018-10-16T04:40:24.492Z,60.10
2018-10-16T04:45:28.243Z,60.00
2018-10-16T04:50:31.968Z,60.20
2018-10-16T04:55:35.696Z,60.40
2018-10-16T05:00:39.540Z,60.50
2018-10-16T05:05:43.288Z,60.30
2018-10-16T05:10:47.019Z,60.10
2018-10-16T05:15:50.719Z,60.50
2018-10-16T05:20:54.448Z,60.50
2018-10-16T05:25:58.209Z,60.60
2018-10-16T05:31:02.025Z,60.70
2018-10-16T05:36:06.068Z,60.50
2018-10-16T05:41:09.792Z,60.90
2018-10-16T05:46:13.514Z,61.00
2018-10-16T05:51:17.258Z,60.70
2018-10-16T05:56:20.998Z,61.10
2018-10-16T06:01:24.711Z,61.30
2018-10-16T06:06:28.436Z,61.70
2018-10-16T06:11:32.153Z,61.60
2018-10-16T06:16:35.903Z,61.50
2018-10-16T06:21:39.662Z,61.50
2018-10-16T06:26:43.388Z,61.50
2018-10-16T06:31:47.107Z,62.10
2018-10-16T06:36:50.931Z,61.80
2018-10-16T06:41:54.675Z,62.20
2018-10-16T06:46:58.523Z,62.00
2018-10-16T06:52:02.553Z,62.00
2018-10-16T06:57:06.287Z,61.80
2018-10-16T07:02:10.195Z,61.90
2018-10-16T07:07:14.065Z,62.20
2018-10-16T07:12:17.659Z,62.40
2018-10-16T07:17:21.372Z,62.40
2018-10-16T07:22:25.076Z,63.00
2018-10-16T07:27:28.914Z,62.70
2018-10-16T07:32:32.631Z,63.60
2018-10-16T07:37:37.173Z,62.80
2018-10-16T07:42:41.203Z,62.90
2018-10-16T07:47:44.912Z,62.90
2018-10-16T07:52:48.680Z,62.90
2018-10-16T07:57:52.395Z,62.90
2018-10-16T08:02:56.140Z,62.80
2018-10-16T08:07:59.847Z,62.70
2018-10-16T08:13:03.591Z,62.90
2018-10-16T08:18:07.330Z,63.30
2018-10-16T08:23:11.076Z,63.30
2018-10-16T08:28:14.825Z,63.30
2018-10-16T08:33:18.579Z,63.20
2018-10-16T08:39:27.972Z,63.30
2018-10-16T08:45:40.707Z,63.20
2018-10-16T08:50:56.044Z,63.60
2018-10-16T08:55:59.777Z,63.30
2018-10-16T09:01:03.507Z,64.20
2018-10-16T09:06:07.232Z,64.10
2018-10-16T09:11:10.966Z,64.20
2018-10-16T09:16:14.711Z,63.40
2018-10-16T09:21:18.471Z,64.90
2018-10-16T09:26:22.215Z,65.30
2018-10-16T09:31:25.919Z,63.00
2018-10-16T09:36:29.631Z,61.80
2018-10-16T09:41:33.355Z,61.70
2018-10-16T09:46:37.448Z,61.20
2018-10-16T09:51:41.172Z,61.70
2018-10-16T09:56:44.908Z,61.40
2018-10-16T10:01:52.880Z,61.90
2018-10-16T10:06:56.623Z,62.30
2018-10-16T10:12:00.376Z,62.50
2018-10-16T10:17:04.144Z,62.60
2018-10-16T10:22:07.884Z,62.90
2018-10-16T10:27:11.606Z,62.40
2018-10-16T10:32:15.339Z,61.90
2018-10-16T10:37:19.084Z,62.00
2018-10-16T10:42:22.799Z,62.20
2018-10-16T10:47:26.524Z,61.90
2018-10-16T10:52:30.305Z,62.10
2018-10-16T10:57:34.251Z,62.30
2018-10-16T11:02:38.928Z,61.70
2018-10-16T11:07:42.667Z,61.30
2018-10-16T11:12:46.411Z,60.90
2018-10-16T11:17:50.121Z,60.70
2018-10-16T11:22:53.852Z,60.40
2018-10-16T11:27:57.579Z,60.40
2018-10-16T11:33:01.330Z,59.90
2018-10-16T11:38:05.136Z,59.30
2018-10-16T11:43:08.844Z,59.10
2018-10-16T11:48:12.593Z,59.00
2018-10-16T11:53:16.304Z,59.00
2018-10-16T11:58:20.093Z,58.60
2018-10-16T12:03:23.796Z,57.50
2018-10-16T12:08:27.520Z,56.90
2018-10-16T12:13:31.304Z,56.60
2018-10-16T12:18:38.073Z,56.40
2018-10-16T12:23:41.880Z,56.10
2018-10-16T12:28:45.898Z,56.10
2018-10-16T12:33:49.583Z,56.20
2018-10-16T12:38:53.643Z,56.60
2018-10-16T12:43:57.348Z,56.40
2018-10-16T12:49:01.072Z,55.70
2018-10-16T12:54:04.892Z,55.50
2018-10-16T12:59:08.698Z,55.50
2018-10-16T13:04:12.256Z,55.60
2018-10-16T13:09:15.971Z,55.40
2018-10-16T13:14:19.732Z,55.10
2018-10-16T13:19:23.447Z,55.20
2018-10-16T13:24:27.243Z,55.10
2018-10-16T13:29:31.204Z,54.90
2018-10-16T13:34:34.731Z,54.80
2018-10-16T13:39:38.536Z,54.50
2018-10-16T13:44:42.259Z,54.80
2018-10-16T13:49:45.968Z,54.00
2018-10-16T13:54:49.691Z,53.90
2018-10-16T13:59:53.647Z,53.70
2018-10-16T14:04:57.653Z,53.80
2018-10-16T14:10:01.296Z,53.60
2018-10-16T14:15:05.377Z,54.00
2018-10-16T14:20:10.168Z,54.20
2018-10-16T14:25:14.907Z,54.10
2018-10-16T14:30:18.633Z,54.20
2018-10-16T14:35:22.371Z,54.20
2018-10-16T14:40:26.139Z,54.10
2018-10-16T14:45:29.804Z,54.00
2018-10-16T14:50:33.511Z,54.10
2018-10-16T14:55:37.321Z,54.20
2018-10-16T15:00:41.068Z,54.00
2018-10-16T15:05:44.775Z,54.20
2018-10-16T15:10:48.581Z,54.30
2018-10-16T15:15:52.330Z,54.40
2018-10-16T15:20:56.115Z,54.50
2018-10-16T15:25:59.883Z,54.60
2018-10-16T15:31:03.696Z,54.60
2018-10-16T15:36:07.427Z,54.80
2018-10-16T15:41:11.188Z,54.80
2018-10-16T15:46:14.907Z,54.90
2018-10-16T15:51:18.652Z,55.00
2018-10-16T15:56:22.371Z,55.10
2018-10-16T16:01:26.114Z,55.20
2018-10-16T16:06:29.859Z,55.30
2018-10-16T16:11:33.575Z,55.40
2018-10-16T16:16:37.359Z,55.80
2018-10-16T16:21:41.107Z,55.70
2018-10-16T16:26:44.831Z,56.00
2018-10-16T16:31:48.583Z,55.90
2018-10-16T16:36:52.359Z,56.10
2018-10-16T16:41:56.129Z,56.20
2018-10-16T16:46:59.935Z,56.50
2018-10-16T16:52:03.653Z,56.60
2018-10-16T16:57:07.461Z,56.60
2018-10-16T17:02:11.237Z,56.60
2018-10-16T17:07:14.991Z,56.50
2018-10-16T17:12:18.699Z,56.50
2018-10-16T17:17:22.448Z,56.70
2018-10-16T17:22:26.244Z,56.90
2018-10-16T17:27:30.067Z,57.10
2018-10-16T17:32:33.784Z,57.00
2018-10-16T17:37:37.739Z,57.20
2018-10-16T17:42:41.793Z,57.20
2018-10-16T17:47:45.778Z,57.30
2018-10-16T17:52:49.508Z,57.30
2018-10-16T17:57:53.358Z,57.40
2018-10-16T18:02:57.076Z,57.60
2018-10-16T18:08:00.780Z,57.60
2018-10-16T18:13:04.766Z,57.80
2018-10-16T18:18:08.567Z,57.90
2018-10-16T18:23:12.241Z,57.90
2018-10-16T18:28:16.428Z,58.20
2018-10-16T18:33:20.128Z,58.20
2018-10-16T18:38:23.835Z,58.40
2018-10-16T18:43:27.573Z,58.60
2018-10-16T18:48:31.346Z,58.80
2018-10-16T18:53:35.042Z,59.10
2018-10-16T18:58:38.856Z,58.90
2018-10-16T19:03:42.614Z,59.20
2018-10-16T19:08:46.343Z,59.30
2018-10-16T19:13:50.159Z,59.50
2018-10-16T19:18:53.836Z,59.60
2018-10-16T19:23:57.640Z,59.80
2018-10-16T19:29:01.363Z,59.20
2018-10-16T19:34:05.187Z,59.80
2018-10-16T19:39:09.923Z,59.80
2018-10-16T19:44:13.618Z,59.90
2018-10-16T19:49:17.364Z,60.00
2018-10-16T19:54:21.100Z,59.90
2018-10-16T19:59:24.820Z,59.90
2018-10-16T20:04:28.609Z,60.80
2018-10-16T20:09:32.344Z,60.10
2018-10-16T20:14:36.167Z,60.10
2018-10-16T20:19:39.954Z,60.20
2018-10-16T20:24:43.752Z,60.30
2018-10-16T20:29:47.412Z,61.20
2018-10-16T20:34:51.247Z,60.40
2018-10-16T20:39:54.964Z,60.60
2018-10-16T20:44:58.700Z,60.50
2018-10-16T20:50:02.508Z,60.90
2018-10-16T20:55:06.631Z,61.00
2018-10-16T21:00:10.363Z,60.70
2018-10-16T21:05:14.344Z,60.80
2018-10-16T21:10:17.803Z,60.70
2018-10-16T21:15:21.563Z,61.10
2018-10-16T21:20:25.301Z,60.70
2018-10-16T21:25:29.063Z,60.80
2018-10-16T21:30:32.807Z,61.10
2018-10-16T21:35:36.611Z,61.40
2018-10-16T21:40:40.421Z,61.30
2018-10-16T21:45:44.480Z,61.20
2018-10-16T21:50:48.231Z,61.30
2018-10-16T21:55:51.960Z,61.00
2018-10-16T22:01:01.128Z,61.30
2018-10-16T22:06:04.943Z,61.60
2018-10-16T22:11:08.764Z,61.60
2018-10-16T22:16:12.447Z,61.70
2018-10-16T22:21:16.162Z,61.70
2018-10-16T22:26:19.939Z,62.00
2018-10-16T22:31:23.659Z,61.90
2018-10-16T22:36:27.412Z,62.00
2018-10-16T22:41:31.140Z,62.10
2018-10-16T22:46:35.299Z,62.00
2018-10-16T22:51:39.052Z,62.20
2018-10-16T22:56:42.775Z,62.30
2018-10-16T23:01:46.547Z,62.30
2018-10-16T23:06:50.267Z,62.20
2018-10-16T23:11:54.028Z,62.60
2018-10-16T23:16:57.771Z,62.70
2018-10-16T23:22:01.536Z,62.90
2018-10-16T23:27:05.751Z,62.80
2018-10-16T23:32:09.499Z,62.90
2018-10-16T23:37:13.423Z,62.80
2018-10-16T23:42:17.022Z,62.50
2018-10-16T23:47:20.756Z,63.00
2018-10-16T23:52:24.487Z,62.90
2018-10-16T23:57:28.224Z,63.10
